BGKK

Kulusuk  Airport

Kulusuk, Greenland

BGKK 241550Z 08018KT 2000 SN VV015 M03/M06 Q1026

Observed Flight Rules
Nov-24 @ 15:50 UTC (56 minutes ago)
 
Instrument Flight Rules
Wind Visibility Clouds Conditions
80° at 18 knots 1,996 meters
  • Vertical visibility at 1,500' AGL
  • Snow
Temperatures Readings
Current -3°C / 27°F
Dewpoint -6°C / 21°F
Humidity 80%
Altimeter 30.3" Hg
Pressure 1026 hPa
Elevation 34
Observed Flight Rules
Nov-24 @ 15:50 UTC
(56 minutes ago)
 
LIFR
Wind Visibility
80° at 18 knots 1,996 meters
Clouds
  • Vertical visibility at 1,500' AGL
Conditions
  • Snow
Temperature Dewpoint
-3°C / 27°F -6°C / 21°F
Humidity Altimeter Pressure
80% 30.3" Hg 1026 hPa